TAM1182 SBLO-SBSP
Flight info
| Callsign | TAM1182 |
|---|---|
| Flight time | N/A |
| Altitude | 33000 |
| Route | AKTIT DCT IMTBI DCT UTLOT |
| Aircraft | A320/M-SDE3FGHIRWY/LB1 |
Departure
| Time | 2026-05-05 20:50 |
|---|---|
| Airport | Governor José Richa Airport (SBLO) |
Arrival
| Time | N/A |
|---|---|
| Airport | Congonhas–Deputado Freitas Nobre Airport (SBSP) |
| Time | Latitude | Longitude | Altitude | Speed | Heading |
|---|---|---|---|---|---|
| 2026-05-05 20:26 | -23.32912 | -51.13821 | 1879 ft | 0 kts | 21° |
| 2026-05-05 20:44 | -23.32927 | -51.13827 | 1879 ft | 3 kts | 22° |
| 2026-05-05 20:44 | -23.32946 | -51.13835 | 1879 ft | 3 kts | 21° |
| 2026-05-05 20:44 | -23.32963 | -51.13842 | 1879 ft | 2 kts | 8° |
| 2026-05-05 20:44 | -23.32972 | -51.13843 | 1879 ft | 1 kts | 324° |
| 2026-05-05 20:45 | -23.32981 | -51.13829 | 1879 ft | 1 kts | 289° |
| 2026-05-05 20:45 | -23.32982 | -51.13826 | 1878 ft | 0 kts | 289° |
| 2026-05-05 20:47 | -23.32977 | -51.13844 | 1874 ft | 4 kts | 288° |
| 2026-05-05 20:47 | -23.32968 | -51.13870 | 1875 ft | 3 kts | 290° |
| 2026-05-05 20:47 | -23.32963 | -51.13885 | 1878 ft | 1 kts | 290° |
| 2026-05-05 20:47 | -23.32960 | -51.13895 | 1875 ft | 2 kts | 289° |
| 2026-05-05 20:48 | -23.32961 | -51.13915 | 1878 ft | 2 kts | 251° |
| 2026-05-05 20:48 | -23.32967 | -51.13924 | 1878 ft | 1 kts | 230° |
| 2026-05-05 20:48 | -23.32979 | -51.13935 | 1878 ft | 6 kts | 216° |
| 2026-05-05 20:48 | -23.33015 | -51.13951 | 1878 ft | 5 kts | 192° |
| 2026-05-05 20:49 | -23.33053 | -51.13917 | 1875 ft | 12 kts | 120° |
| 2026-05-05 20:49 | -23.33092 | -51.13806 | 1878 ft | 20 kts | 110° |
| 2026-05-05 20:49 | -23.33131 | -51.13686 | 1879 ft | 0 kts | 111° |
| 2026-05-05 20:49 | -23.33157 | -51.13613 | 1880 ft | 42 kts | 110° |
| 2026-05-05 20:50 | -23.33345 | -51.13048 | 1879 ft | 113 kts | 110° |
| 2026-05-05 20:50 | -23.33554 | -51.12427 | 1883 ft | 150 kts | 110° |
| 2026-05-05 20:50 | -23.34093 | -51.10986 | 2584 ft | 158 kts | 112° |
| 2026-05-05 20:50 | -23.34509 | -51.09794 | 2859 ft | 179 kts | 110° |
| 2026-05-05 20:51 | -23.34950 | -51.08452 | 3093 ft | 203 kts | 110° |
| 2026-05-05 20:51 | -23.35440 | -51.06914 | 3383 ft | 228 kts | 105° |
| 2026-05-05 20:51 | -23.35407 | -51.05129 | 3752 ft | 251 kts | 68° |
| 2026-05-05 20:51 | -23.34369 | -51.03535 | 4311 ft | 266 kts | 46° |
| 2026-05-05 20:52 | -23.33128 | -51.02013 | 5157 ft | 271 kts | 48° |
| 2026-05-05 20:52 | -23.31890 | -51.00450 | 6021 ft | 275 kts | 52° |
| 2026-05-05 20:52 | -23.30805 | -50.98730 | 6882 ft | 278 kts | 58° |
| 2026-05-05 20:52 | -23.29822 | -50.96900 | 7725 ft | 282 kts | 60° |
| 2026-05-05 20:53 | -23.28886 | -50.95048 | 8537 ft | 285 kts | 61° |
| 2026-05-05 20:53 | -23.27932 | -50.93147 | 9347 ft | 289 kts | 61° |
| 2026-05-05 20:53 | -23.26947 | -50.91215 | 10136 ft | 292 kts | 60° |
| 2026-05-05 20:53 | -23.25919 | -50.89235 | 10533 ft | 312 kts | 60° |
| 2026-05-05 20:54 | -23.24806 | -50.87125 | 10755 ft | 336 kts | 60° |
| 2026-05-05 20:54 | -23.23592 | -50.84849 | 10918 ft | 359 kts | 59° |
| 2026-05-05 20:54 | -23.22297 | -50.82435 | 11092 ft | 379 kts | 59° |
| 2026-05-05 20:54 | -23.21501 | -50.80951 | 11366 ft | 385 kts | 59° |
| 2026-05-05 20:55 | -23.20171 | -50.78471 | 11961 ft | 390 kts | 59° |
| 2026-05-05 20:55 | -23.18817 | -50.75948 | 12596 ft | 393 kts | 59° |
| 2026-05-05 20:55 | -23.17432 | -50.73369 | 13224 ft | 397 kts | 59° |
| 2026-05-05 20:55 | -23.16032 | -50.70766 | 13795 ft | 401 kts | 59° |
| 2026-05-05 20:56 | -23.14621 | -50.68145 | 14381 ft | 404 kts | 59° |
| 2026-05-05 20:56 | -23.13196 | -50.65499 | 14938 ft | 407 kts | 59° |
| 2026-05-05 20:56 | -23.11757 | -50.62831 | 15487 ft | 410 kts | 59° |
| 2026-05-05 20:56 | -23.10307 | -50.60141 | 16022 ft | 414 kts | 59° |
| 2026-05-05 20:57 | -23.08861 | -50.57458 | 16527 ft | 417 kts | 59° |
| 2026-05-05 20:57 | -23.07384 | -50.54715 | 17023 ft | 420 kts | 59° |
| 2026-05-05 20:57 | -23.05917 | -50.51994 | 17516 ft | 423 kts | 59° |
| 2026-05-05 20:57 | -23.04420 | -50.49221 | 17992 ft | 426 kts | 59° |
| 2026-05-05 20:58 | -23.03448 | -50.47368 | 18305 ft | 427 kts | 63° |
| 2026-05-05 20:58 | -23.01908 | -50.43417 | 18908 ft | 431 kts | 68° |
| 2026-05-05 20:58 | -23.00808 | -50.40378 | 19353 ft | 434 kts | 68° |
| 2026-05-05 20:58 | -22.99700 | -50.37324 | 19786 ft | 437 kts | 68° |
| 2026-05-05 20:59 | -22.98580 | -50.34249 | 20208 ft | 439 kts | 68° |
| 2026-05-05 20:59 | -22.97448 | -50.31148 | 20619 ft | 442 kts | 68° |
| 2026-05-05 20:59 | -22.96696 | -50.29089 | 20883 ft | 443 kts | 68° |
| 2026-05-05 20:59 | -22.95188 | -50.24954 | 21389 ft | 447 kts | 68° |
| 2026-05-05 21:00 | -22.94044 | -50.21818 | 21758 ft | 449 kts | 68° |
| 2026-05-05 21:00 | -22.92889 | -50.18663 | 22115 ft | 451 kts | 68° |
| 2026-05-05 21:00 | -22.91722 | -50.15486 | 22475 ft | 454 kts | 68° |
| 2026-05-05 21:00 | -22.90553 | -50.12300 | 22835 ft | 456 kts | 68° |
| 2026-05-05 21:01 | -22.89376 | -50.09093 | 23166 ft | 458 kts | 68° |
| 2026-05-05 21:01 | -22.88616 | -50.07024 | 23383 ft | 460 kts | 68° |
| 2026-05-05 21:01 | -22.87129 | -50.02969 | 23780 ft | 463 kts | 68° |
| 2026-05-05 21:01 | -22.86324 | -50.00775 | 23991 ft | 464 kts | 68° |
| 2026-05-05 21:02 | -22.84758 | -49.96494 | 24215 ft | 473 kts | 69° |
| 2026-05-05 21:02 | -22.83530 | -49.93151 | 24347 ft | 481 kts | 69° |
| 2026-05-05 21:02 | -22.82703 | -49.90908 | 24433 ft | 486 kts | 69° |
| 2026-05-05 21:02 | -22.81437 | -49.87484 | 24571 ft | 491 kts | 69° |
| 2026-05-05 21:03 | -22.80161 | -49.84034 | 24803 ft | 494 kts | 69° |
| 2026-05-05 21:03 | -22.78882 | -49.80574 | 25051 ft | 497 kts | 69° |
| 2026-05-05 21:03 | -22.77177 | -49.75951 | 25397 ft | 500 kts | 70° |
| 2026-05-05 21:03 | -22.75884 | -49.72451 | 25657 ft | 502 kts | 70° |
| 2026-05-05 21:04 | -22.74583 | -49.68942 | 26010 ft | 502 kts | 70° |
| 2026-05-05 21:04 | -22.73285 | -49.65438 | 26400 ft | 501 kts | 70° |
| 2026-05-05 21:04 | -22.72427 | -49.63120 | 26657 ft | 500 kts | 70° |
| 2026-05-05 21:04 | -22.70695 | -49.58444 | 27159 ft | 500 kts | 70° |
| 2026-05-05 21:05 | -22.69836 | -49.56131 | 27416 ft | 500 kts | 70° |
| 2026-05-05 21:05 | -22.68544 | -49.52644 | 27789 ft | 499 kts | 70° |
| 2026-05-05 21:05 | -22.67253 | -49.49157 | 28170 ft | 499 kts | 70° |
| 2026-05-05 21:05 | -22.65960 | -49.45666 | 28540 ft | 499 kts | 70° |
| 2026-05-05 21:06 | -22.64664 | -49.42185 | 28928 ft | 498 kts | 70° |
| 2026-05-05 21:06 | -22.63385 | -49.38767 | 29275 ft | 498 kts | 70° |
| 2026-05-05 21:06 | -22.62086 | -49.35299 | 29638 ft | 497 kts | 70° |
| 2026-05-05 21:06 | -22.60787 | -49.31831 | 30017 ft | 496 kts | 70° |
| 2026-05-05 21:07 | -22.59492 | -49.28367 | 30343 ft | 496 kts | 70° |
| 2026-05-05 21:07 | -22.58204 | -49.24906 | 30668 ft | 496 kts | 71° |
| 2026-05-05 21:07 | -22.57146 | -49.21371 | 30982 ft | 493 kts | 79° |
| 2026-05-05 21:07 | -22.56556 | -49.17729 | 31279 ft | 490 kts | 88° |
| 2026-05-05 21:08 | -22.56306 | -49.14056 | 31577 ft | 489 kts | 89° |
| 2026-05-05 21:08 | -22.56073 | -49.10434 | 31894 ft | 489 kts | 89° |
| 2026-05-05 21:08 | -22.55827 | -49.06760 | 32195 ft | 490 kts | 89° |
| 2026-05-05 21:08 | -22.55574 | -49.03066 | 32523 ft | 490 kts | 89° |
| 2026-05-05 21:09 | -22.55318 | -48.99388 | 32844 ft | 490 kts | 89° |
| 2026-05-05 21:09 | -22.55065 | -48.95759 | 33111 ft | 490 kts | 89° |
| 2026-05-05 21:09 | -22.54551 | -48.88350 | 33192 ft | 496 kts | 89° |
| 2026-05-05 21:10 | -22.54040 | -48.80891 | 33193 ft | 498 kts | 89° |
| 2026-05-05 21:10 | -22.53535 | -48.73455 | 33191 ft | 499 kts | 89° |
| 2026-05-05 21:11 | -22.53007 | -48.65967 | 33193 ft | 499 kts | 89° |
| 2026-05-05 21:11 | -22.52474 | -48.58514 | 33191 ft | 498 kts | 89° |
| 2026-05-05 21:12 | -22.51940 | -48.51034 | 33195 ft | 498 kts | 89° |
| 2026-05-05 21:12 | -22.51404 | -48.43587 | 33196 ft | 498 kts | 89° |
| 2026-05-05 21:13 | -22.50865 | -48.36123 | 33202 ft | 498 kts | 89° |
| 2026-05-05 21:13 | -22.50325 | -48.28640 | 33199 ft | 498 kts | 89° |
| 2026-05-05 21:14 | -22.49779 | -48.21165 | 33200 ft | 498 kts | 89° |
| 2026-05-05 21:14 | -22.49228 | -48.13752 | 33198 ft | 498 kts | 89° |
| 2026-05-05 21:15 | -22.48673 | -48.06283 | 33199 ft | 498 kts | 89° |
| 2026-05-05 21:15 | -22.48123 | -47.98830 | 33200 ft | 497 kts | 90° |
| 2026-05-05 21:16 | -22.48648 | -47.91496 | 33198 ft | 485 kts | 108° |
| 2026-05-05 21:16 | -22.51071 | -47.84857 | 33196 ft | 472 kts | 125° |
| 2026-05-05 21:17 | -22.54944 | -47.79224 | 33196 ft | 466 kts | 134° |
| 2026-05-05 21:17 | -22.55350 | -47.78685 | 33196 ft | 465 kts | 134° |
| 2026-05-05 21:18 | -22.59301 | -47.73436 | 33194 ft | 466 kts | 134° |
| 2026-05-05 21:18 | -22.63354 | -47.68021 | 33226 ft | 465 kts | 134° |
| 2026-05-05 21:19 | -22.67417 | -47.62584 | 32851 ft | 464 kts | 134° |
| 2026-05-05 21:19 | -22.69433 | -47.59883 | 31601 ft | 462 kts | 133° |
| 2026-05-05 21:19 | -22.71464 | -47.57167 | 30038 ft | 466 kts | 133° |
| 2026-05-05 21:20 | -22.73419 | -47.54554 | 28461 ft | 469 kts | 132° |
| 2026-05-05 21:20 | -22.75482 | -47.51799 | 26680 ft | 473 kts | 132° |
| 2026-05-05 21:20 | -22.77564 | -47.49019 | 24772 ft | 477 kts | 131° |
| 2026-05-05 21:20 | -22.79636 | -47.46249 | 23143 ft | 476 kts | 131° |
| 2026-05-05 21:21 | -22.81696 | -47.43487 | 21798 ft | 466 kts | 130° |
| 2026-05-05 21:21 | -22.83711 | -47.40782 | 20491 ft | 457 kts | 130° |
| 2026-05-05 21:21 | -22.85691 | -47.38123 | 19208 ft | 448 kts | 130° |
| 2026-05-05 21:21 | -22.87634 | -47.35514 | 17948 ft | 439 kts | 129° |
| 2026-05-05 21:22 | -22.89532 | -47.32966 | 16710 ft | 431 kts | 129° |
| 2026-05-05 21:22 | -22.91395 | -47.30464 | 15477 ft | 422 kts | 129° |
| 2026-05-05 21:22 | -22.93204 | -47.28031 | 14292 ft | 420 kts | 129° |
| 2026-05-05 21:22 | -22.95039 | -47.25558 | 13582 ft | 418 kts | 129° |
| 2026-05-05 21:23 | -22.96850 | -47.23118 | 13330 ft | 414 kts | 129° |
| 2026-05-05 21:23 | -22.98651 | -47.20693 | 13184 ft | 412 kts | 129° |
| 2026-05-05 21:23 | -23.00448 | -47.18274 | 13229 ft | 412 kts | 129° |
| 2026-05-05 21:23 | -23.02322 | -47.15918 | 13221 ft | 413 kts | 135° |
| 2026-05-05 21:24 | -23.04496 | -47.13879 | 13152 ft | 413 kts | 142° |
| 2026-05-05 21:24 | -23.06774 | -47.11997 | 12901 ft | 411 kts | 143° |
| 2026-05-05 21:24 | -23.09023 | -47.10147 | 12434 ft | 408 kts | 142° |
| 2026-05-05 21:24 | -23.11313 | -47.08262 | 12207 ft | 406 kts | 142° |
| 2026-05-05 21:25 | -23.13476 | -47.06480 | 12212 ft | 385 kts | 142° |